Ship Status Report: callsign BATFR15

sailwx.info

Track history (hours):
 
Tides and Currents Weather Stations Pressure Air Temp Water Temp Dewpoint Dewpoint Depression Visibility Wind Speed Wind Dir Waves Ship Positions

Callsign BATFR15 (name unknown)

Last reported at 2016-Aug-27 04:00 UTC. Time now 2016-Aug-27 16:51 UTC.
Position N 53°30' E 009°54'.

Wind from 030 at 3 knots

Barometer 1021.1 mb
Air temperature 16.4 ° C
Water temperature 21.2 ° C

Date/timePositionNaut miles runAvg speedWind from/ knotsBaromVisibWave heightAir tempDewpointWater temp
2016-Aug-27 04:00N 53°30' E 009°54'1212.3 030 / 31021.1 16.4 21.2
2016-Aug-27 03:00N 53°36' E 009°36'9 9.3 010 / 41021.2 16.4 20.9
2016-Aug-27 02:00N 53°42' E 009°24'3110.3 010 / 51021.0 16.9 20.7
2016-Aug-26 23:00N 53°54' E 008°36'1212.2 340 / 81020.5 18.4 20.2
2016-Aug-26 22:00N 54°00' E 008°18'1110.6 330 / 81020.4 18.2 20.0
2016-Aug-26 21:00N 54°00' E 008°00'9 9.3 320 / 71020.0 18.2 19.7
2016-Aug-26 20:00N 53°54' E 007°48'1110.6 320 / 71019.8 18.2 19.4
2016-Aug-26 19:00N 53°54' E 007°30'7 7.1 310 / 91019.6 18.2 19.2
2016-Aug-26 18:00N 53°54' E 007°18'29 9.6 300 / 101019.710.8 18.5 19.4
2016-Aug-26 15:00N 53°48' E 006°30'1212.2 290 / 101019.210.8 19.2 19.4
2016-Aug-26 14:00N 53°42' E 006°12'7 7.1 290 / 121018.9 19.2 19.4
2016-Aug-26 13:00N 53°42' E 006°00'1212.2 280 / 131018.8 18.9 19.4
2016-Aug-26 12:00N 53°36' E 005°42'1110.7 280 / 131018.6 18.9 19.2
2016-Aug-26 11:00N 53°36' E 005°24'1212.3 270 / 131017.8 18.9 19.2
2016-Aug-26 10:00N 53°30' E 005°06'2210.8 270 / 101017.3 18.4 19.2
2016-Aug-26 08:00N 53°18' E 004°36'7 7.0 290 / 131015.5 17.9 18.9
2016-Aug-26 07:00N 53°12' E 004°30'1312.5 270 / 121016.1 18.0 19.2
2016-Aug-26 06:00N 53°00' E 004°24'7 7.0 290 / 151015.0 2.2 18.2 18.9
2016-Aug-26 05:00N 52°54' E 004°18'1414.0 270 / 111014.5 18.7 19.0
2016-Aug-26 04:00N 52°42' E 004°06'7 7.0 260 / 161014.9 18.9 19.2
2016-Aug-26 03:00N 52°36' E 004°00'1312.5 280 / 101014.0 2.2 19.0 19.2
2016-Aug-26 02:00N 52°24' E 003°54'6 6.0 260 / 81014.0 19.2 19.4
2016-Aug-26 01:00N 52°18' E 003°54'19 9.7 270 / 61013.7 19.5 19.4
2016-Aug-25 23:00N 52°00' E 004°06'10 9.5 300 / 61012.7 22.2 20.7
2016-Aug-25 22:00N 51°54' E 004°18'10 0.4 140 / 71012.7 27.4 22.0
2016-Aug-24 19:00N 52°00' E 004°06'1111.1 160 / 101018.9 29.2 20.4
2016-Aug-24 18:00N 52°00' E 003°48'19 9.7 140 / 101017.8 29.7 20.4
2016-Aug-24 16:00N 51°54' E 003°18'7 7.4 150 / 81018.1 25.4 19.4
2016-Aug-24 15:00N 51°54' E 003°06'1312.6 140 / 111018.2 24.2 18.9
2016-Aug-24 14:00N 51°48' E 002°48'10 9.5 150 / 121019.0 22.7 18.7
2016-Aug-24 13:00N 51°42' E 002°36'1312.7 140 / 121019.1 21.7 18.5
2016-Aug-24 12:00N 51°36' E 002°18'1414.1 170 / 101019.3 23.0 18.4
2016-Aug-24 11:00N 51°24' E 002°06'10 9.6 170 / 111019.5 22.2 18.5
2016-Aug-24 10:00N 51°18' E 001°54'1414.2 150 / 101019.5 21.2 18.2
2016-Aug-24 09:00N 51°06' E 001°42'10 9.6 140 / 71019.6 5.4 1.022.7 17.9
2016-Aug-24 08:00N 51°00' E 001°30'1312.6 180 / 121019.4 22.9 17.9
2016-Aug-24 07:00N 50°48' E 001°24'10 9.7 160 / 161019.7 22.4 17.9
2016-Aug-24 06:00N 50°42' E 001°12'1414.2 160 / 151019.210.8 20.2 17.9
2016-Aug-24 05:00N 50°30' E 001°00'5112.8 150 / 151018.5 19.4 17.5
2016-Aug-24 01:00N 50°18' W 000°18'3316.5 150 / 151018.1 20.9 17.2
2016-Aug-23 23:00N 50°06' W 001°06'7214.4 130 / 161018.5 22.9 17.0
2016-Aug-23 18:00N 49°48' W 002°54'5213.0 070 / 31018.610.8 19.4 16.9
2016-Aug-23 14:00N 49°36' W 004°12'5614.0 180 / 91019.4 19.0 17.7
2016-Aug-23 10:00N 49°24' W 005°36'1313.2 160 / 101018.7 18.2 17.5
2016-Aug-23 09:00N 49°18' W 005°54'7514.9 180 / 81018.7 5.4 1.017.4 16.9
2016-Aug-23 04:00N 49°12' W 007°48'2713.7 150 / 111019.7 17.4 17.7
2016-Aug-23 02:00N 49°12' W 008°30'1211.8 170 / 101019.8 17.4 17.7
2016-Aug-23 01:00N 49°12' W 008°48'1615.7 170 / 101020.0 17.4 17.5
2016-Aug-23 00:00N 49°12' W 009°12'1313.2 190 / 111020.3 0.0 2.016.9 17.5
2016-Aug-22 23:00N 49°06' W 009°30'1615.7 200 / 131020.3 17.0 17.4
2016-Aug-22 22:00N 49°06' W 009°54'1211.8 270 / 41020.6 17.0 17.0
2016-Aug-22 21:00N 49°06' W 010°12'1615.7 350 / 151020.6 0.0 1.015.9 17.0
2016-Aug-22 20:00N 49°06' W 010°36'1313.2 350 / 151020.3 15.7 17.0
2016-Aug-22 19:00N 49°00' W 010°54'1615.7 020 / 71021.8 15.2 17.2
2016-Aug-22 18:00N 49°00' W 011°18'1211.8 020 / 101021.410.8 16.5 17.4
2016-Aug-22 17:00N 49°00' W 011°36'1615.7 360 / 121020.7 16.0 17.4
2016-Aug-22 16:00N 49°00' W 012°00'1313.3 1021.4 16.5 17.4
2016-Aug-22 15:00N 48°54' W 012°18'1615.8 350 / 81021.710.8 16.7 17.7
2016-Aug-22 14:00N 48°54' W 012°42'1211.8 340 / 61021.9 16.9 18.2
2016-Aug-22 13:00N 48°54' W 013°00'1313.3 1022.1 17.2 17.9
2016-Aug-22 12:00N 48°48' W 013°18'1615.8 330 / 21022.110.8 17.0 17.4
2016-Aug-22 11:00N 48°48' W 013°42'1211.9 340 / 21022.6 17.2 17.0
2016-Aug-22 10:00N 48°48' W 014°00'1615.8 320 / 41022.1 16.7 16.7
2016-Aug-22 09:00N 48°48' W 014°24'1313.3 310 / 51021.9 5.4 1.016.9 16.9
2016-Aug-22 08:00N 48°42' W 014°42'1211.9 300 / 101021.4 16.7 16.7
2016-Aug-22 07:00N 48°42' W 015°00'1615.8 290 / 91020.9 16.5 16.9
2016-Aug-22 06:00N 48°42' W 015°24'1313.3 290 / 121020.410.8 16.2 16.9
2016-Aug-22 05:00N 48°36' W 015°42'1211.9 290 / 131020.0 16.2 17.2
2016-Aug-22 04:00N 48°36' W 016°00'1313.3 280 / 131019.8 16.4 17.2
2016-Aug-22 03:00N 48°30' W 016°18'2019.9 280 / 151019.7 5.4 2.016.2 17.4
2016-Aug-22 02:00N 48°30' W 016°48'8216.4 280 / 151019.3 16.2 17.2
2016-Aug-21 21:00N 48°12' W 018°48'5016.5 290 / 121017.6 16.4 16.9
2016-Aug-21 18:00N 48°00' W 020°00'3316.4 280 / 181016.210.8 17.0 17.4
2016-Aug-21 16:00N 47°54' W 020°48'1717.2 280 / 211015.1 17.2 17.2
2016-Aug-21 15:00N 47°48' W 021°12'1616.1 280 / 211014.7 5.4 16.9 16.9
2016-Aug-21 14:00N 47°48' W 021°36'2121.0 280 / 241014.9 16.7 17.4
2016-Aug-21 13:00N 47°42' W 022°06'3517.3 270 / 231014.4 17.2 18.2
2016-Aug-21 11:00N 47°30' W 022°54'1616.2 270 / 251013.0 17.5 18.5
2016-Aug-21 10:00N 47°30' W 023°18'1717.3 270 / 261012.0 17.4 17.7
2016-Aug-21 09:00N 47°24' W 023°42'3919.3 260 / 241011.6 5.4 1.017.7 17.4
2016-Aug-21 07:00N 47°12' W 024°36'3718.6 260 / 221009.9 19.4 18.7
2016-Aug-21 05:00N 47°06' W 025°30'1717.4 250 / 231009.1 20.2 18.7
2016-Aug-21 04:00N 47°00' W 025°54'1717.4 240 / 211008.7 21.9 19.0
2016-Aug-21 03:00N 46°54' W 026°18'1717.5 230 / 221008.3 19.9 19.2
2016-Aug-21 02:00N 46°48' W 026°42'1817.5 220 / 221008.3 19.7 17.2
2016-Aug-21 01:00N 46°42' W 027°06'5718.9 230 / 211008.0 21.7 17.9
2016-Aug-20 22:00N 46°24' W 028°24'1817.6 220 / 241007.2 20.9 18.9
2016-Aug-20 21:00N 46°18' W 028°48'1817.6 230 / 231006.5 5.4 2.020.9 18.7
2016-Aug-20 20:00N 46°12' W 029°12'2221.6 220 / 231006.1 20.4 17.9
2016-Aug-20 19:00N 46°06' W 029°42'1817.7 220 / 231005.5 20.9 17.7
2016-Aug-20 18:00N 46°00' W 030°06'1817.7 220 / 211005.3 21.4 19.9
2016-Aug-20 17:00N 45°54' W 030°30'3617.8 220 / 221004.9 21.7 19.2
2016-Aug-20 15:00N 45°42' W 031°18'2120.6 230 / 201004.8 5.4 21.4 18.4
2016-Aug-20 14:00N 45°30' W 031°42'1817.9 250 / 201004.8 23.0 18.9
2016-Aug-20 13:00N 45°24' W 032°06'3617.9 230 / 211004.6 23.9 21.0
2016-Aug-20 11:00N 45°12' W 032°54'3216.0 230 / 211003.7 22.2 19.7
2016-Aug-20 09:00N 45°00' W 033°36'1818.0 220 / 221003.5 5.4 21.4 20.2
2016-Aug-20 08:00N 44°54' W 034°00'1818.0 220 / 231003.2 21.0 19.7
2016-Aug-20 07:00N 44°48' W 034°24'2120.9 230 / 191003.1 21.4 19.2
2016-Aug-20 06:00N 44°36' W 034°48'1818.1 210 / 231002.7 5.4 20.9 19.4
2016-Aug-20 05:00N 44°30' W 035°12'1414.2 210 / 231002.8 20.7 18.7
2016-Aug-20 04:00N 44°24' W 035°30'1818.2 210 / 231002.8 20.7 19.4
2016-Aug-20 03:00N 44°18' W 035°54'2121.0 210 / 221003.1 5.4 2.020.9 19.2
2016-Aug-20 02:00N 44°06' W 036°18'5116.9 210 / 221003.3 20.9 18.9
2016-Aug-19 23:00N 43°48' W 037°24'2121.1 210 / 221004.1 22.2 20.5
2016-Aug-19 22:00N 43°36' W 037°48'1414.4 220 / 191003.9 23.4 21.0
2016-Aug-19 21:00N 43°30' W 038°06'1818.4 220 / 231003.8 5.4 22.7 21.2
2016-Aug-19 20:00N 43°24' W 038°30'2121.2 210 / 231003.7 23.2 21.9
2016-Aug-19 19:00N 43°12' W 038°54'1918.5 210 / 231003.3 23.4 21.7
2016-Aug-19 18:00N 43°06' W 039°18'1918.5 210 / 251003.2 23.7 21.7
2016-Aug-19 17:00N 43°00' W 039°42'1817.8 210 / 281003.3 23.4 21.7
2016-Aug-19 16:00N 42°48' W 040°00'1918.6 210 / 271003.7 23.5 22.2
2016-Aug-19 15:00N 42°42' W 040°24'2121.4 210 / 261004.1 5.4 3.023.7 22.2
2016-Aug-19 14:00N 42°30' W 040°48'1514.6 200 / 261004.5 23.7 22.0
2016-Aug-19 13:00N 42°24' W 041°06'1514.6 200 / 271004.5 23.4 22.4
2016-Aug-19 12:00N 42°18' W 041°24'2121.5 200 / 261005.3 5.4 2.022.7 22.2
2016-Aug-19 11:00N 42°06' W 041°48'1514.7 200 / 261005.7 22.9 22.7
2016-Aug-19 10:00N 42°00' W 042°06'1818.0 190 / 281005.8 23.7 22.9
2016-Aug-19 09:00N 41°48' W 042°24'1918.9 200 / 281006.1 23.9 23.4
2016-Aug-19 08:00N 41°42' W 042°48'1918.9 190 / 291006.1 23.7 22.9
2016-Aug-19 07:00N 41°36' W 043°12'1818.0 190 / 301006.4 23.7 23.2
2016-Aug-19 06:00N 41°24' W 043°30'1919.0 200 / 291007.110.8 24.0 23.9
2016-Aug-19 05:00N 41°18' W 043°54'1818.1 200 / 301007.7 24.2 24.4
2016-Aug-19 04:00N 41°06' W 044°12'1919.1 200 / 281008.4 24.0 23.9
2016-Aug-19 03:00N 41°00' W 044°36'1818.1 200 / 251009.9 5.4 24.2 24.7
2016-Aug-19 02:00N 40°48' W 044°54'7318.3 200 / 251010.1 24.7 24.7
2016-Aug-18 22:00N 40°12' W 046°18'2221.9 210 / 241011.8 24.5 24.5
2016-Aug-18 21:00N 40°00' W 046°42'1818.3 210 / 231012.310.8 25.0 24.5
2016-Aug-18 20:00N 39°48' W 047°00'3718.5 200 / 221012.5 24.9 24.2
2016-Aug-18 18:00N 39°30' W 047°42'1818.4 200 / 201012.910.8 25.7 24.7
2016-Aug-18 17:00N 39°18' W 048°00'2019.5 200 / 201013.9 25.9 25.2
2016-Aug-18 16:00N 39°12' W 048°24'1818.4 210 / 191014.6 25.7 25.4
2016-Aug-18 15:00N 39°00' W 048°42'1818.4 210 / 171015.5 25.2 25.4
2016-Aug-18 14:00N 38°48' W 049°00'3718.7 210 / 161016.4 25.0 26.0
2016-Aug-18 12:00N 38°30' W 049°42'2222.3 220 / 131016.9 26.2 26.2
2016-Aug-18 11:00N 38°18' W 050°06'1918.5 220 / 121017.1 25.9 25.9
2016-Aug-18 10:00N 38°06' W 050°24'1515.4 230 / 111017.1 25.0 26.0
2016-Aug-18 09:00N 38°00' W 050°42'1918.6 230 / 101017.310.8 24.0 26.4
2016-Aug-18 08:00N 37°48' W 051°00'3416.9 240 / 101017.5 23.9 26.2
2016-Aug-18 06:00N 37°30' W 051°36'1918.7 260 / 81018.110.8 23.9 26.2
2016-Aug-18 05:00N 37°18' W 051°54'1918.7 250 / 61018.8 23.9 26.2
2016-Aug-18 04:00N 37°06' W 052°12'1615.6 220 / 61019.3 24.7 26.4
2016-Aug-18 03:00N 37°00' W 052°30'1918.7 220 / 51019.9 24.9 26.4
2016-Aug-18 02:00N 36°48' W 052°48'1918.8 210 / 31020.1 25.0 26.7
2016-Aug-18 01:00N 36°36' W 053°06'3015.1 160 / 41020.3 25.0 26.7
2016-Aug-17 23:00N 36°18' W 053°36'1918.8 140 / 101019.9 25.2 26.7
2016-Aug-17 22:00N 36°06' W 053°54'1615.7 140 / 111019.8 25.7 26.9
2016-Aug-17 21:00N 36°00' W 054°12'3818.9 140 / 131019.510.8 26.2 27.0
2016-Aug-17 19:00N 35°36' W 054°48'1615.8 300 / 131021.2 27.4 27.4
2016-Aug-17 18:00N 35°30' W 055°06'1919.0 310 / 131021.710.8 27.2 26.9
2016-Aug-17 17:00N 35°18' W 055°24'1919.0 310 / 101022.4 27.4 27.9
2016-Aug-17 16:00N 35°06' W 055°42'1919.0 300 / 91021.9 26.4 26.9
2016-Aug-17 15:00N 34°54' W 056°00'1919.0 280 / 171022.4 5.4 2.025.9 27.5
2016-Aug-17 14:00N 34°42' W 056°18'1615.5 260 / 181023.9 27.9 27.7
2016-Aug-17 13:00N 34°30' W 056°30'1919.1 270 / 161024.0 27.4 27.7
2016-Aug-17 12:00N 34°18' W 056°48'1919.1 270 / 181023.9 5.4 1.027.5 27.5
2016-Aug-17 11:00N 34°06' W 057°06'1919.1 290 / 171024.1 27.2 28.0
2016-Aug-17 10:00N 33°54' W 057°24'1616.1 270 / 161023.9 27.2 28.0
2016-Aug-17 09:00N 33°48' W 057°42'1919.2 260 / 151023.510.8 26.9 27.9
2016-Aug-17 08:00N 33°36' W 058°00'1919.2 270 / 121023.7 26.9 27.7
2016-Aug-17 07:00N 33°24' W 058°18'1919.2 270 / 101024.0 26.9 27.7
2016-Aug-17 06:00N 33°12' W 058°36'1919.3 270 / 91024.310.8 27.2 27.9
2016-Aug-17 05:00N 33°00' W 058°54'1919.3 280 / 81024.8 27.4 28.2
2016-Aug-17 04:00N 32°48' W 059°12'   270 / 51025.5 27.4 28.4
Track history (hours):
 
Tides and Currents Weather Stations Pressure Air Temp Water Temp Dewpoint Dewpoint Depression Visibility Wind Speed Wind Dir Waves Ship Positions

Callsign BATFR15 (name unknown)

Last reported at 2016-Aug-27 04:00 UTC. Time now 2016-Aug-27 16:51 UTC.
Position N 53°30' E 009°54'.

Wind from 030 at 3 knots

Barometer 1021.1 mb
Air temperature 16.4 ° C
Water temperature 21.2 ° C

Date/timePositionNaut miles runAvg speedWind from/ knotsBaromVisibWave heightAir tempDewpointWater temp
2016-Aug-27 04:00N 53°30' E 009°54'1212.3 030 / 31021.1 16.4 21.2
2016-Aug-27 03:00N 53°36' E 009°36'9 9.3 010 / 41021.2 16.4 20.9
2016-Aug-27 02:00N 53°42' E 009°24'3110.3 010 / 51021.0 16.9 20.7
2016-Aug-26 23:00N 53°54' E 008°36'1212.2 340 / 81020.5 18.4 20.2
2016-Aug-26 22:00N 54°00' E 008°18'1110.6 330 / 81020.4 18.2 20.0
2016-Aug-26 21:00N 54°00' E 008°00'9 9.3 320 / 71020.0 18.2 19.7
2016-Aug-26 20:00N 53°54' E 007°48'1110.6 320 / 71019.8 18.2 19.4
2016-Aug-26 19:00N 53°54' E 007°30'7 7.1 310 / 91019.6 18.2 19.2
2016-Aug-26 18:00N 53°54' E 007°18'29 9.6 300 / 101019.710.8 18.5 19.4
2016-Aug-26 15:00N 53°48' E 006°30'1212.2 290 / 101019.210.8 19.2 19.4
2016-Aug-26 14:00N 53°42' E 006°12'7 7.1 290 / 121018.9 19.2 19.4
2016-Aug-26 13:00N 53°42' E 006°00'1212.2 280 / 131018.8 18.9 19.4
2016-Aug-26 12:00N 53°36' E 005°42'1110.7 280 / 131018.6 18.9 19.2
2016-Aug-26 11:00N 53°36' E 005°24'1212.3 270 / 131017.8 18.9 19.2
2016-Aug-26 10:00N 53°30' E 005°06'2210.8 270 / 101017.3 18.4 19.2
2016-Aug-26 08:00N 53°18' E 004°36'7 7.0 290 / 131015.5 17.9 18.9
2016-Aug-26 07:00N 53°12' E 004°30'1312.5 270 / 121016.1 18.0 19.2
2016-Aug-26 06:00N 53°00' E 004°24'7 7.0 290 / 151015.0 2.2 18.2 18.9
2016-Aug-26 05:00N 52°54' E 004°18'1414.0 270 / 111014.5 18.7 19.0
2016-Aug-26 04:00N 52°42' E 004°06'7 7.0 260 / 161014.9 18.9 19.2
2016-Aug-26 03:00N 52°36' E 004°00'1312.5 280 / 101014.0 2.2 19.0 19.2
2016-Aug-26 02:00N 52°24' E 003°54'6 6.0 260 / 81014.0 19.2 19.4
2016-Aug-26 01:00N 52°18' E 003°54'19 9.7 270 / 61013.7 19.5 19.4
2016-Aug-25 23:00N 52°00' E 004°06'10 9.5 300 / 61012.7 22.2 20.7
2016-Aug-25 22:00N 51°54' E 004°18'10 0.4 140 / 71012.7 27.4 22.0
2016-Aug-24 19:00N 52°00' E 004°06'1111.1 160 / 101018.9 29.2 20.4
2016-Aug-24 18:00N 52°00' E 003°48'19 9.7 140 / 101017.8 29.7 20.4
2016-Aug-24 16:00N 51°54' E 003°18'7 7.4 150 / 81018.1 25.4 19.4
2016-Aug-24 15:00N 51°54' E 003°06'1312.6 140 / 111018.2 24.2 18.9
2016-Aug-24 14:00N 51°48' E 002°48'10 9.5 150 / 121019.0 22.7 18.7
2016-Aug-24 13:00N 51°42' E 002°36'1312.7 140 / 121019.1 21.7 18.5
2016-Aug-24 12:00N 51°36' E 002°18'1414.1 170 / 101019.3 23.0 18.4
2016-Aug-24 11:00N 51°24' E 002°06'10 9.6 170 / 111019.5 22.2 18.5
2016-Aug-24 10:00N 51°18' E 001°54'1414.2 150 / 101019.5 21.2 18.2
2016-Aug-24 09:00N 51°06' E 001°42'10 9.6 140 / 71019.6 5.4 1.022.7 17.9
2016-Aug-24 08:00N 51°00' E 001°30'1312.6 180 / 121019.4 22.9 17.9
2016-Aug-24 07:00N 50°48' E 001°24'10 9.7 160 / 161019.7 22.4 17.9
2016-Aug-24 06:00N 50°42' E 001°12'1414.2 160 / 151019.210.8 20.2 17.9
2016-Aug-24 05:00N 50°30' E 001°00'5112.8 150 / 151018.5 19.4 17.5
2016-Aug-24 01:00N 50°18' W 000°18'3316.5 150 / 151018.1 20.9 17.2
2016-Aug-23 23:00N 50°06' W 001°06'7214.4 130 / 161018.5 22.9 17.0
2016-Aug-23 18:00N 49°48' W 002°54'5213.0 070 / 31018.610.8 19.4 16.9
2016-Aug-23 14:00N 49°36' W 004°12'5614.0 180 / 91019.4 19.0 17.7
2016-Aug-23 10:00N 49°24' W 005°36'1313.2 160 / 101018.7 18.2 17.5
2016-Aug-23 09:00N 49°18' W 005°54'7514.9 180 / 81018.7 5.4 1.017.4 16.9
2016-Aug-23 04:00N 49°12' W 007°48'2713.7 150 / 111019.7 17.4 17.7
2016-Aug-23 02:00N 49°12' W 008°30'1211.8 170 / 101019.8 17.4 17.7
2016-Aug-23 01:00N 49°12' W 008°48'1615.7 170 / 101020.0 17.4 17.5
2016-Aug-23 00:00N 49°12' W 009°12'1313.2 190 / 111020.3 0.0 2.016.9 17.5
2016-Aug-22 23:00N 49°06' W 009°30'1615.7 200 / 131020.3 17.0 17.4
2016-Aug-22 22:00N 49°06' W 009°54'1211.8 270 / 41020.6 17.0 17.0
2016-Aug-22 21:00N 49°06' W 010°12'1615.7 350 / 151020.6 0.0 1.015.9 17.0
2016-Aug-22 20:00N 49°06' W 010°36'1313.2 350 / 151020.3 15.7 17.0
2016-Aug-22 19:00N 49°00' W 010°54'1615.7 020 / 71021.8 15.2 17.2
2016-Aug-22 18:00N 49°00' W 011°18'1211.8 020 / 101021.410.8 16.5 17.4
2016-Aug-22 17:00N 49°00' W 011°36'1615.7 360 / 121020.7 16.0 17.4
2016-Aug-22 16:00N 49°00' W 012°00'1313.3 1021.4 16.5 17.4
2016-Aug-22 15:00N 48°54' W 012°18'1615.8 350 / 81021.710.8 16.7 17.7
2016-Aug-22 14:00N 48°54' W 012°42'1211.8 340 / 61021.9 16.9 18.2
2016-Aug-22 13:00N 48°54' W 013°00'1313.3 1022.1 17.2 17.9
2016-Aug-22 12:00N 48°48' W 013°18'1615.8 330 / 21022.110.8 17.0 17.4
2016-Aug-22 11:00N 48°48' W 013°42'1211.9 340 / 21022.6 17.2 17.0
2016-Aug-22 10:00N 48°48' W 014°00'1615.8 320 / 41022.1 16.7 16.7
2016-Aug-22 09:00N 48°48' W 014°24'1313.3 310 / 51021.9 5.4 1.016.9 16.9
2016-Aug-22 08:00N 48°42' W 014°42'1211.9 300 / 101021.4 16.7 16.7
2016-Aug-22 07:00N 48°42' W 015°00'1615.8 290 / 91020.9 16.5 16.9
2016-Aug-22 06:00N 48°42' W 015°24'1313.3 290 / 121020.410.8 16.2 16.9
2016-Aug-22 05:00N 48°36' W 015°42'1211.9 290 / 131020.0 16.2 17.2
2016-Aug-22 04:00N 48°36' W 016°00'1313.3 280 / 131019.8 16.4 17.2
2016-Aug-22 03:00N 48°30' W 016°18'2019.9 280 / 151019.7 5.4 2.016.2 17.4
2016-Aug-22 02:00N 48°30' W 016°48'8216.4 280 / 151019.3 16.2 17.2
2016-Aug-21 21:00N 48°12' W 018°48'5016.5 290 / 121017.6 16.4 16.9
2016-Aug-21 18:00N 48°00' W 020°00'3316.4 280 / 181016.210.8 17.0 17.4
2016-Aug-21 16:00N 47°54' W 020°48'1717.2 280 / 211015.1 17.2 17.2
2016-Aug-21 15:00N 47°48' W 021°12'1616.1 280 / 211014.7 5.4 16.9 16.9
2016-Aug-21 14:00N 47°48' W 021°36'2121.0 280 / 241014.9 16.7 17.4
2016-Aug-21 13:00N 47°42' W 022°06'3517.3 270 / 231014.4 17.2 18.2
2016-Aug-21 11:00N 47°30' W 022°54'1616.2 270 / 251013.0 17.5 18.5
2016-Aug-21 10:00N 47°30' W 023°18'1717.3 270 / 261012.0 17.4 17.7
2016-Aug-21 09:00N 47°24' W 023°42'3919.3 260 / 241011.6 5.4 1.017.7 17.4
2016-Aug-21 07:00N 47°12' W 024°36'3718.6 260 / 221009.9 19.4 18.7
2016-Aug-21 05:00N 47°06' W 025°30'1717.4 250 / 231009.1 20.2 18.7
2016-Aug-21 04:00N 47°00' W 025°54'1717.4 240 / 211008.7 21.9 19.0
2016-Aug-21 03:00N 46°54' W 026°18'1717.5 230 / 221008.3 19.9 19.2
2016-Aug-21 02:00N 46°48' W 026°42'1817.5 220 / 221008.3 19.7 17.2
2016-Aug-21 01:00N 46°42' W 027°06'5718.9 230 / 211008.0 21.7 17.9
2016-Aug-20 22:00N 46°24' W 028°24'1817.6 220 / 241007.2 20.9 18.9
2016-Aug-20 21:00N 46°18' W 028°48'1817.6 230 / 231006.5 5.4 2.020.9 18.7
2016-Aug-20 20:00N 46°12' W 029°12'2221.6 220 / 231006.1 20.4 17.9
2016-Aug-20 19:00N 46°06' W 029°42'1817.7 220 / 231005.5 20.9 17.7
2016-Aug-20 18:00N 46°00' W 030°06'1817.7 220 / 211005.3 21.4 19.9
2016-Aug-20 17:00N 45°54' W 030°30'3617.8 220 / 221004.9 21.7 19.2
2016-Aug-20 15:00N 45°42' W 031°18'2120.6 230 / 201004.8 5.4 21.4 18.4
2016-Aug-20 14:00N 45°30' W 031°42'1817.9 250 / 201004.8 23.0 18.9
2016-Aug-20 13:00N 45°24' W 032°06'3617.9 230 / 211004.6 23.9 21.0
2016-Aug-20 11:00N 45°12' W 032°54'3216.0 230 / 211003.7 22.2 19.7
2016-Aug-20 09:00N 45°00' W 033°36'1818.0 220 / 221003.5 5.4 21.4 20.2
2016-Aug-20 08:00N 44°54' W 034°00'1818.0 220 / 231003.2 21.0 19.7
2016-Aug-20 07:00N 44°48' W 034°24'2120.9 230 / 191003.1 21.4 19.2
2016-Aug-20 06:00N 44°36' W 034°48'1818.1 210 / 231002.7 5.4 20.9 19.4
2016-Aug-20 05:00N 44°30' W 035°12'1414.2 210 / 231002.8 20.7 18.7
2016-Aug-20 04:00N 44°24' W 035°30'1818.2 210 / 231002.8 20.7 19.4
2016-Aug-20 03:00N 44°18' W 035°54'2121.0 210 / 221003.1 5.4 2.020.9 19.2
2016-Aug-20 02:00N 44°06' W 036°18'5116.9 210 / 221003.3 20.9 18.9
2016-Aug-19 23:00N 43°48' W 037°24'2121.1 210 / 221004.1 22.2 20.5
2016-Aug-19 22:00N 43°36' W 037°48'1414.4 220 / 191003.9 23.4 21.0
2016-Aug-19 21:00N 43°30' W 038°06'1818.4 220 / 231003.8 5.4 22.7 21.2
2016-Aug-19 20:00N 43°24' W 038°30'2121.2 210 / 231003.7 23.2 21.9
2016-Aug-19 19:00N 43°12' W 038°54'1918.5 210 / 231003.3 23.4 21.7
2016-Aug-19 18:00N 43°06' W 039°18'1918.5 210 / 251003.2 23.7 21.7
2016-Aug-19 17:00N 43°00' W 039°42'1817.8 210 / 281003.3 23.4 21.7
2016-Aug-19 16:00N 42°48' W 040°00'1918.6 210 / 271003.7 23.5 22.2
2016-Aug-19 15:00N 42°42' W 040°24'2121.4 210 / 261004.1 5.4 3.023.7 22.2
2016-Aug-19 14:00N 42°30' W 040°48'1514.6 200 / 261004.5 23.7 22.0
2016-Aug-19 13:00N 42°24' W 041°06'1514.6 200 / 271004.5 23.4 22.4
2016-Aug-19 12:00N 42°18' W 041°24'2121.5 200 / 261005.3 5.4 2.022.7 22.2
2016-Aug-19 11:00N 42°06' W 041°48'1514.7 200 / 261005.7 22.9 22.7
2016-Aug-19 10:00N 42°00' W 042°06'1818.0 190 / 281005.8 23.7 22.9
2016-Aug-19 09:00N 41°48' W 042°24'1918.9 200 / 281006.1 23.9 23.4
2016-Aug-19 08:00N 41°42' W 042°48'1918.9 190 / 291006.1 23.7 22.9
2016-Aug-19 07:00N 41°36' W 043°12'1818.0 190 / 301006.4 23.7 23.2
2016-Aug-19 06:00N 41°24' W 043°30'1919.0 200 / 291007.110.8 24.0 23.9
2016-Aug-19 05:00N 41°18' W 043°54'1818.1 200 / 301007.7 24.2 24.4
2016-Aug-19 04:00N 41°06' W 044°12'1919.1 200 / 281008.4 24.0 23.9
2016-Aug-19 03:00N 41°00' W 044°36'1818.1 200 / 251009.9 5.4 24.2 24.7
2016-Aug-19 02:00N 40°48' W 044°54'7318.3 200 / 251010.1 24.7 24.7
2016-Aug-18 22:00N 40°12' W 046°18'2221.9 210 / 241011.8 24.5 24.5
2016-Aug-18 21:00N 40°00' W 046°42'1818.3 210 / 231012.310.8 25.0 24.5
2016-Aug-18 20:00N 39°48' W 047°00'3718.5 200 / 221012.5 24.9 24.2
2016-Aug-18 18:00N 39°30' W 047°42'1818.4 200 / 201012.910.8 25.7 24.7
2016-Aug-18 17:00N 39°18' W 048°00'2019.5 200 / 201013.9 25.9 25.2
2016-Aug-18 16:00N 39°12' W 048°24'1818.4 210 / 191014.6 25.7 25.4
2016-Aug-18 15:00N 39°00' W 048°42'1818.4 210 / 171015.5 25.2 25.4
2016-Aug-18 14:00N 38°48' W 049°00'3718.7 210 / 161016.4 25.0 26.0
2016-Aug-18 12:00N 38°30' W 049°42'2222.3 220 / 131016.9 26.2 26.2
2016-Aug-18 11:00N 38°18' W 050°06'1918.5 220 / 121017.1 25.9 25.9
2016-Aug-18 10:00N 38°06' W 050°24'1515.4 230 / 111017.1 25.0 26.0
2016-Aug-18 09:00N 38°00' W 050°42'1918.6 230 / 101017.310.8 24.0 26.4
2016-Aug-18 08:00N 37°48' W 051°00'3416.9 240 / 101017.5 23.9 26.2
2016-Aug-18 06:00N 37°30' W 051°36'1918.7 260 / 81018.110.8 23.9 26.2
2016-Aug-18 05:00N 37°18' W 051°54'1918.7 250 / 61018.8 23.9 26.2
2016-Aug-18 04:00N 37°06' W 052°12'1615.6 220 / 61019.3 24.7 26.4
2016-Aug-18 03:00N 37°00' W 052°30'1918.7 220 / 51019.9 24.9 26.4
2016-Aug-18 02:00N 36°48' W 052°48'1918.8 210 / 31020.1 25.0 26.7
2016-Aug-18 01:00N 36°36' W 053°06'3015.1 160 / 41020.3 25.0 26.7
2016-Aug-17 23:00N 36°18' W 053°36'1918.8 140 / 101019.9 25.2 26.7
2016-Aug-17 22:00N 36°06' W 053°54'1615.7 140 / 111019.8 25.7 26.9
2016-Aug-17 21:00N 36°00' W 054°12'3818.9 140 / 131019.510.8 26.2 27.0
2016-Aug-17 19:00N 35°36' W 054°48'1615.8 300 / 131021.2 27.4 27.4
2016-Aug-17 18:00N 35°30' W 055°06'1919.0 310 / 131021.710.8 27.2 26.9
2016-Aug-17 17:00N 35°18' W 055°24'1919.0 310 / 101022.4 27.4 27.9
2016-Aug-17 16:00N 35°06' W 055°42'1919.0 300 / 91021.9 26.4 26.9
2016-Aug-17 15:00N 34°54' W 056°00'1919.0 280 / 171022.4 5.4 2.025.9 27.5
2016-Aug-17 14:00N 34°42' W 056°18'1615.5 260 / 181023.9 27.9 27.7
2016-Aug-17 13:00N 34°30' W 056°30'1919.1 270 / 161024.0 27.4 27.7
2016-Aug-17 12:00N 34°18' W 056°48'1919.1 270 / 181023.9 5.4 1.027.5 27.5
2016-Aug-17 11:00N 34°06' W 057°06'1919.1 290 / 171024.1 27.2 28.0
2016-Aug-17 10:00N 33°54' W 057°24'1616.1 270 / 161023.9 27.2 28.0
2016-Aug-17 09:00N 33°48' W 057°42'1919.2 260 / 151023.510.8 26.9 27.9
2016-Aug-17 08:00N 33°36' W 058°00'1919.2 270 / 121023.7 26.9 27.7
2016-Aug-17 07:00N 33°24' W 058°18'1919.2 270 / 101024.0 26.9 27.7
2016-Aug-17 06:00N 33°12' W 058°36'1919.3 270 / 91024.310.8 27.2 27.9
2016-Aug-17 05:00N 33°00' W 058°54'1919.3 280 / 81024.8 27.4 28.2
2016-Aug-17 04:00N 32°48' W 059°12'   270 / 51025.5 27.4 28.4

Dump ship's entire track history